createdAt,value
2018-07-21T00:00:59.636Z,1006.23
2018-07-21T00:01:59.656Z,1006.22
2018-07-21T00:02:59.659Z,1006.23
2018-07-21T00:03:59.868Z,1006.23
2018-07-21T00:04:59.657Z,1006.22
2018-07-21T00:05:59.661Z,1006.21
2018-07-21T00:06:59.694Z,1006.22
2018-07-21T00:07:59.685Z,1006.22
2018-07-21T00:08:59.879Z,1006.22
2018-07-21T00:09:59.682Z,1006.21
2018-07-21T00:10:59.688Z,1006.19
2018-07-21T00:11:59.693Z,1006.18
2018-07-21T00:12:59.905Z,1006.17
2018-07-21T00:13:59.921Z,1006.15
2018-07-21T00:14:59.717Z,1006.12
2018-07-21T00:15:59.725Z,1006.13
2018-07-21T00:16:59.720Z,1006.08
2018-07-21T00:17:59.734Z,1006.12
2018-07-21T00:18:59.731Z,1006.09
2018-07-21T00:19:59.939Z,1006.09
2018-07-21T00:20:59.756Z,1006.04
2018-07-21T00:21:59.760Z,1006.05
2018-07-21T00:22:59.971Z,1006.02
2018-07-21T00:23:59.980Z,1006.03
2018-07-21T00:24:59.977Z,1006.02
2018-07-21T00:25:59.971Z,1006.05
2018-07-21T00:26:59.799Z,1006.05
2018-07-21T00:27:59.983Z,1006.02
2018-07-21T00:28:59.989Z,1006.06
2018-07-21T00:29:59.815Z,1006.03
2018-07-21T00:31:00.032Z,1006.05
2018-07-21T00:31:59.818Z,1005.99
2018-07-21T00:32:59.820Z,1006.04
2018-07-21T00:33:59.827Z,1006.03
2018-07-21T00:34:59.818Z,1006.06
2018-07-21T00:35:59.840Z,1006.04
2018-07-21T00:36:59.840Z,1006.02
2018-07-21T00:37:59.842Z,1006.03
2018-07-21T00:38:59.838Z,1006.03
2018-07-21T00:40:00.045Z,1005.97
2018-07-21T00:40:59.850Z,1005.95
2018-07-21T00:42:00.056Z,1005.99
2018-07-21T00:42:59.870Z,1005.92
2018-07-21T00:44:00.067Z,1005.92
2018-07-21T00:44:59.868Z,1005.97
2018-07-21T00:46:00.080Z,1005.93
2018-07-21T00:46:59.898Z,1005.90
2018-07-21T00:47:59.895Z,1005.91
2018-07-21T00:48:59.904Z,1005.90
2018-07-21T00:49:59.897Z,1005.94
2018-07-21T00:50:59.900Z,1005.94
2018-07-21T00:51:59.906Z,1005.94
2018-07-21T00:52:59.912Z,1005.97
2018-07-21T00:53:59.918Z,1005.98
2018-07-21T00:54:59.945Z,1005.97
2018-07-21T00:55:59.949Z,1005.99
2018-07-21T00:56:59.929Z,1005.97
2018-07-21T00:57:59.946Z,1006.00
2018-07-21T00:58:59.941Z,1006.01
2018-07-21T00:59:59.945Z,1005.97
2018-07-21T01:00:59.966Z,1006.02
2018-07-21T01:01:59.960Z,1006.00
2018-07-21T01:03:00.165Z,1006.02
2018-07-21T01:04:00.182Z,1006.05
2018-07-21T01:05:00.184Z,1006.01
2018-07-21T01:05:59.976Z,1006.03
2018-07-21T01:07:00.197Z,1006.04
2018-07-21T01:08:00.191Z,1006.04
2018-07-21T01:08:59.999Z,1006.06
2018-07-21T01:10:00.003Z,1006.06
2018-07-21T01:11:00.010Z,1006.02
2018-07-21T01:12:00.205Z,1006.03
2018-07-21T01:13:00.225Z,1006.02
2018-07-21T01:14:00.028Z,1005.99
2018-07-21T01:15:00.033Z,1006.04
2018-07-21T01:16:00.020Z,1006.00
2018-07-21T01:17:00.026Z,1006.04
2018-07-21T01:18:00.237Z,1006.00
2018-07-21T01:19:00.253Z,1005.97
2018-07-21T01:20:00.244Z,1005.95
2018-07-21T01:21:00.268Z,1005.96
2018-07-21T01:22:00.049Z,1005.97
2018-07-21T01:23:00.054Z,1005.98
2018-07-21T01:24:00.069Z,1005.96
2018-07-21T01:25:00.082Z,1005.97
2018-07-21T01:26:00.285Z,1005.98
2018-07-21T01:27:00.097Z,1006.00
2018-07-21T01:28:00.088Z,1005.96
2018-07-21T01:29:00.295Z,1005.94
2018-07-21T01:30:00.097Z,1005.97
2018-07-21T01:31:00.091Z,1005.93
2018-07-21T01:32:00.297Z,1005.96
2018-07-21T01:33:00.110Z,1005.93
2018-07-21T01:34:00.102Z,1005.99
2018-07-21T01:35:00.106Z,1005.99
2018-07-21T01:36:00.120Z,1006.01
2018-07-21T01:37:00.317Z,1006.02
2018-07-21T01:38:00.119Z,1006.02
2018-07-21T01:39:00.135Z,1006.02
2018-07-21T01:40:00.128Z,1006.02
2018-07-21T01:41:00.132Z,1006.03
2018-07-21T01:42:00.133Z,1006.03
2018-07-21T01:43:00.171Z,1006.02
2018-07-21T01:44:00.345Z,1006.02
2018-07-21T01:45:00.165Z,1006.01
2018-07-21T01:46:00.354Z,1006.06
2018-07-21T01:47:00.162Z,1006.02
2018-07-21T01:48:00.373Z,1005.99
2018-07-21T01:49:00.162Z,1006.02
2018-07-21T01:50:00.190Z,1006.00
2018-07-21T01:51:00.174Z,1006.04
2018-07-21T01:52:00.199Z,1006.04
2018-07-21T01:53:00.197Z,1006.05
2018-07-21T01:54:00.205Z,1006.06
2018-07-21T01:55:00.189Z,1006.04
2018-07-21T01:56:00.197Z,1006.06
2018-07-21T01:57:00.198Z,1006.04
2018-07-21T01:58:00.203Z,1006.03
2018-07-21T01:59:00.218Z,1006.02
2018-07-21T02:00:00.224Z,1006.02
2018-07-21T02:01:00.227Z,1005.97
2018-07-21T02:02:00.245Z,1005.95
2018-07-21T02:03:00.238Z,1005.98
2018-07-21T02:04:00.241Z,1005.96
2018-07-21T02:05:00.247Z,1005.93
2018-07-21T02:06:00.235Z,1005.94
2018-07-21T02:07:00.242Z,1005.92
2018-07-21T02:08:00.458Z,1005.96
2018-07-21T02:09:00.250Z,1005.92
2018-07-21T02:10:00.269Z,1005.89
2018-07-21T02:11:00.258Z,1005.89
2018-07-21T02:12:00.261Z,1005.88
2018-07-21T02:13:00.478Z,1005.91
2018-07-21T02:14:00.279Z,1005.91
2018-07-21T02:15:00.284Z,1005.88
2018-07-21T02:16:00.279Z,1005.85
2018-07-21T02:17:00.292Z,1005.87
2018-07-21T02:18:00.295Z,1005.86
2018-07-21T02:19:00.299Z,1005.81
2018-07-21T02:20:00.312Z,1005.78
2018-07-21T02:21:00.313Z,1005.80
2018-07-21T02:22:00.313Z,1005.77
2018-07-21T02:23:00.334Z,1005.78
2018-07-21T02:24:00.529Z,1005.74
2018-07-21T02:25:00.335Z,1005.77
2018-07-21T02:26:00.332Z,1005.74
2018-07-21T02:27:00.332Z,1005.74
2018-07-21T02:28:00.339Z,1005.74
2018-07-21T02:29:00.350Z,1005.73
2018-07-21T02:30:00.542Z,1005.76
2018-07-21T02:31:00.342Z,1005.76
2018-07-21T02:32:00.359Z,1005.76
2018-07-21T02:33:00.381Z,1005.77
2018-07-21T02:34:00.556Z,1005.75
2018-07-21T02:35:00.383Z,1005.75
2018-07-21T02:36:00.581Z,1005.72
2018-07-21T02:37:00.386Z,1005.72
2018-07-21T02:38:00.394Z,1005.69
2018-07-21T02:39:00.407Z,1005.71
2018-07-21T02:40:00.407Z,1005.68
2018-07-21T02:41:00.382Z,1005.70
2018-07-21T02:42:00.396Z,1005.68
2018-07-21T02:43:00.404Z,1005.69
2018-07-21T02:44:00.398Z,1005.66
2018-07-21T02:45:00.410Z,1005.68
2018-07-21T02:46:00.410Z,1005.69
2018-07-21T02:47:00.407Z,1005.66
2018-07-21T02:48:00.421Z,1005.70
2018-07-21T02:49:00.420Z,1005.68
2018-07-21T02:50:00.430Z,1005.67
2018-07-21T02:51:00.426Z,1005.71
2018-07-21T02:52:00.435Z,1005.66
2018-07-21T02:53:00.434Z,1005.65
2018-07-21T02:54:00.443Z,1005.65
2018-07-21T02:55:00.446Z,1005.66
2018-07-21T02:56:00.641Z,1005.69
2018-07-21T02:57:00.446Z,1005.67
2018-07-21T02:58:00.449Z,1005.65
2018-07-21T02:59:00.466Z,1005.66
2018-07-21T03:00:00.477Z,1005.63
2018-07-21T03:01:00.663Z,1005.68
2018-07-21T03:02:00.676Z,1005.65
2018-07-21T03:03:00.467Z,1005.64
2018-07-21T03:04:00.484Z,1005.64
2018-07-21T03:05:00.486Z,1005.66
2018-07-21T03:06:00.491Z,1005.65
2018-07-21T03:07:00.498Z,1005.64
2018-07-21T03:08:00.702Z,1005.67
2018-07-21T03:09:00.498Z,1005.72
2018-07-21T03:10:00.527Z,1005.70
2018-07-21T03:11:00.496Z,1005.72
2018-07-21T03:12:00.506Z,1005.73
2018-07-21T03:13:00.505Z,1005.72
2018-07-21T03:14:00.527Z,1005.70
2018-07-21T03:15:00.523Z,1005.70
2018-07-21T03:16:00.512Z,1005.72
2018-07-21T03:17:00.520Z,1005.71
2018-07-21T03:18:00.520Z,1005.75
2018-07-21T03:19:00.728Z,1005.76
2018-07-21T03:20:00.538Z,1005.74
2018-07-21T03:21:00.534Z,1005.73
2018-07-21T03:22:00.533Z,1005.73
2018-07-21T03:23:00.539Z,1005.72
2018-07-21T03:24:00.540Z,1005.63
2018-07-21T03:25:00.555Z,1005.67
2018-07-21T03:26:00.551Z,1005.64
2018-07-21T03:27:00.564Z,1005.60
2018-07-21T03:28:00.569Z,1005.60
2018-07-21T03:29:00.573Z,1005.64
2018-07-21T03:30:00.585Z,1005.62
2018-07-21T03:31:00.593Z,1005.63
2018-07-21T03:32:00.571Z,1005.67
2018-07-21T03:33:00.584Z,1005.66
2018-07-21T03:34:00.590Z,1005.68
2018-07-21T03:35:00.592Z,1005.67
2018-07-21T03:36:00.584Z,1005.60
2018-07-21T03:37:00.601Z,1005.57
2018-07-21T03:38:00.590Z,1005.60
2018-07-21T03:39:03.637Z,1005.63
2018-07-21T03:40:00.610Z,1005.59
2018-07-21T03:41:00.612Z,1005.58
2018-07-21T03:42:00.618Z,1005.60
2018-07-21T03:43:00.629Z,1005.57
2018-07-21T03:44:00.620Z,1005.57
2018-07-21T03:45:00.629Z,1005.57
2018-07-21T03:46:00.630Z,1005.54
2018-07-21T03:47:00.630Z,1005.54
2018-07-21T03:48:00.656Z,1005.54
2018-07-21T03:49:00.643Z,1005.53
2018-07-21T03:50:00.646Z,1005.58
2018-07-21T03:51:00.642Z,1005.60
2018-07-21T03:52:00.639Z,1005.58
2018-07-21T03:53:00.660Z,1005.60
2018-07-21T03:54:00.658Z,1005.64
2018-07-21T03:55:00.704Z,1005.64
2018-07-21T03:56:00.659Z,1005.60
2018-07-21T03:57:00.674Z,1005.60
2018-07-21T03:58:00.666Z,1005.62
2018-07-21T03:59:00.675Z,1005.63
2018-07-21T04:00:00.668Z,1005.65
2018-07-21T04:01:00.667Z,1005.67
2018-07-21T04:02:00.672Z,1005.68
2018-07-21T04:03:00.700Z,1005.67
2018-07-21T04:04:00.686Z,1005.67
2018-07-21T04:05:00.695Z,1005.70
2018-07-21T04:07:00.686Z,1005.70
2018-07-21T04:08:00.688Z,1005.71
2018-07-21T04:09:00.738Z,1005.69
2018-07-21T04:10:00.712Z,1005.70
2018-07-21T04:11:00.722Z,1005.69
2018-07-21T04:12:00.716Z,1005.69
2018-07-21T04:13:00.728Z,1005.70
2018-07-21T04:14:00.709Z,1005.67
2018-07-21T04:15:00.717Z,1005.69
2018-07-21T04:16:00.743Z,1005.70
2018-07-21T04:17:00.730Z,1005.73
2018-07-21T04:18:00.744Z,1005.68
2018-07-21T04:19:00.734Z,1005.65
2018-07-21T04:20:00.741Z,1005.64
2018-07-21T04:21:00.762Z,1005.66
2018-07-21T04:22:00.734Z,1005.66
2018-07-21T04:23:00.749Z,1005.61
2018-07-21T04:24:00.740Z,1005.63
2018-07-21T04:25:00.764Z,1005.63
2018-07-21T04:26:00.745Z,1005.66
2018-07-21T04:27:00.749Z,1005.63
2018-07-21T04:28:00.756Z,1005.61
2018-07-21T04:29:00.766Z,1005.62
2018-07-21T04:30:00.766Z,1005.61
2018-07-21T04:31:00.776Z,1005.65
2018-07-21T04:32:00.771Z,1005.71
2018-07-21T04:33:00.769Z,1005.72
2018-07-21T04:34:00.771Z,1005.73
2018-07-21T04:35:00.784Z,1005.71
2018-07-21T04:36:00.797Z,1005.76
2018-07-21T04:37:01.007Z,1005.75
2018-07-21T04:38:00.784Z,1005.76
2018-07-21T04:39:00.787Z,1005.78
2018-07-21T04:40:00.801Z,1005.76
2018-07-21T04:41:00.804Z,1005.84
2018-07-21T04:42:00.815Z,1005.83
2018-07-21T04:43:00.798Z,1005.84
2018-07-21T04:44:00.829Z,1005.85
2018-07-21T04:45:00.803Z,1005.88
2018-07-21T04:46:01.042Z,1005.85
2018-07-21T04:47:00.809Z,1005.91
2018-07-21T04:48:00.812Z,1005.91
2018-07-21T04:49:00.817Z,1005.94
2018-07-21T04:50:00.819Z,1005.94
2018-07-21T04:51:00.835Z,1006.00
2018-07-21T04:52:01.032Z,1005.97
2018-07-21T04:53:00.827Z,1006.00
2018-07-21T04:54:00.909Z,1006.02
2018-07-21T04:55:00.832Z,1006.06
2018-07-21T04:56:00.859Z,1006.05
2018-07-21T04:57:00.853Z,1006.06
2018-07-21T04:58:00.854Z,1006.06
2018-07-21T04:59:00.843Z,1006.07
2018-07-21T05:00:00.847Z,1006.11
2018-07-21T05:01:00.891Z,1006.10
2018-07-21T05:02:00.855Z,1006.13
2018-07-21T05:03:01.071Z,1006.12
2018-07-21T05:04:00.870Z,1006.13
2018-07-21T05:05:00.878Z,1006.14
2018-07-21T05:06:00.915Z,1006.16
2018-07-21T05:07:00.889Z,1006.16
2018-07-21T05:08:01.082Z,1006.15
2018-07-21T05:09:00.890Z,1006.16
2018-07-21T05:10:00.877Z,1006.12
2018-07-21T05:11:00.882Z,1006.14
2018-07-21T05:12:00.883Z,1006.13
2018-07-21T05:13:00.890Z,1006.13
2018-07-21T05:14:00.904Z,1006.11
2018-07-21T05:15:00.907Z,1006.14
2018-07-21T05:16:00.909Z,1006.14
2018-07-21T05:17:00.905Z,1006.15
2018-07-21T05:18:00.907Z,1006.16
2018-07-21T05:19:00.908Z,1006.10
2018-07-21T05:20:01.148Z,1006.09
2018-07-21T05:21:00.915Z,1006.09
2018-07-21T05:22:00.919Z,1006.11
2018-07-21T05:23:00.926Z,1006.12
2018-07-21T05:24:01.128Z,1006.13
2018-07-21T05:25:00.928Z,1006.09
2018-07-21T05:26:01.149Z,1006.10
2018-07-21T05:27:00.938Z,1006.12
2018-07-21T05:28:00.940Z,1006.11
2018-07-21T05:29:00.945Z,1006.05
2018-07-21T05:30:00.946Z,1006.14
2018-07-21T05:31:00.951Z,1006.08
2018-07-21T05:32:01.168Z,1006.12
2018-07-21T05:33:00.959Z,1006.16
2018-07-21T05:34:00.972Z,1006.12
2018-07-21T05:35:00.966Z,1006.17
2018-07-21T05:36:00.984Z,1006.14
2018-07-21T05:37:00.988Z,1006.12
2018-07-21T05:38:01.189Z,1006.16
2018-07-21T05:39:01.240Z,1006.21
2018-07-21T05:40:00.988Z,1006.24
2018-07-21T05:41:00.995Z,1006.24
2018-07-21T05:42:01.020Z,1006.26
2018-07-21T05:43:00.999Z,1006.26
2018-07-21T05:44:01.003Z,1006.29
2018-07-21T05:45:01.054Z,1006.30
2018-07-21T05:46:01.022Z,1006.33
2018-07-21T05:47:01.240Z,1006.32
2018-07-21T05:48:01.023Z,1006.35
2018-07-21T05:49:01.222Z,1006.35
2018-07-21T05:50:01.243Z,1006.37
2018-07-21T05:51:01.045Z,1006.35
2018-07-21T05:52:01.247Z,1006.37
2018-07-21T05:53:01.039Z,1006.36
2018-07-21T05:54:01.044Z,1006.35
2018-07-21T05:55:01.063Z,1006.39
2018-07-21T05:56:01.050Z,1006.34
2018-07-21T05:57:01.054Z,1006.35
2018-07-21T05:58:01.275Z,1006.35
2018-07-21T05:59:01.060Z,1006.33
2018-07-21T06:00:01.083Z,1006.36
2018-07-21T06:01:01.070Z,1006.35
2018-07-21T06:02:01.294Z,1006.38
2018-07-21T06:03:01.336Z,1006.40
2018-07-21T06:04:01.081Z,1006.41
2018-07-21T06:05:01.104Z,1006.38
2018-07-21T06:06:01.090Z,1006.40
2018-07-21T06:07:01.094Z,1006.41
2018-07-21T06:08:01.109Z,1006.38
2018-07-21T06:09:01.114Z,1006.40
2018-07-21T06:10:01.117Z,1006.39
2018-07-21T06:11:01.402Z,1006.37
2018-07-21T06:12:01.114Z,1006.39
2018-07-21T06:13:01.123Z,1006.43
2018-07-21T06:14:01.122Z,1006.38
2018-07-21T06:15:01.126Z,1006.35
2018-07-21T06:16:01.135Z,1006.37
2018-07-21T06:17:01.197Z,1006.36
2018-07-21T06:18:01.342Z,1006.36
2018-07-21T06:19:01.145Z,1006.38
2018-07-21T06:20:01.159Z,1006.42
2018-07-21T06:21:01.151Z,1006.42
2018-07-21T06:22:01.173Z,1006.47
2018-07-21T06:23:01.160Z,1006.48
2018-07-21T06:24:01.163Z,1006.50
2018-07-21T06:25:01.382Z,1006.52
2018-07-21T06:26:01.180Z,1006.55
2018-07-21T06:27:01.191Z,1006.58
2018-07-21T06:28:01.231Z,1006.60
2018-07-21T06:29:01.187Z,1006.61
2018-07-21T06:30:01.208Z,1006.60
2018-07-21T06:31:01.416Z,1006.66
2018-07-21T06:32:01.412Z,1006.64
2018-07-21T06:33:01.225Z,1006.66
2018-07-21T06:34:01.208Z,1006.68
2018-07-21T06:35:01.217Z,1006.70
2018-07-21T06:36:01.214Z,1006.71
2018-07-21T06:37:01.219Z,1006.71
2018-07-21T06:38:01.224Z,1006.72
2018-07-21T06:39:01.249Z,1006.69
2018-07-21T06:40:01.236Z,1006.68
2018-07-21T06:41:01.238Z,1006.71
2018-07-21T06:42:01.244Z,1006.68
2018-07-21T06:43:01.258Z,1006.73
2018-07-21T06:44:01.336Z,1006.74
2018-07-21T06:45:01.260Z,1006.75
2018-07-21T06:46:01.268Z,1006.71
2018-07-21T06:47:01.294Z,1006.74
2018-07-21T06:48:01.291Z,1006.72
2018-07-21T06:49:01.273Z,1006.64
2018-07-21T06:50:01.289Z,1006.67
2018-07-21T06:51:01.292Z,1006.72
2018-07-21T06:52:01.329Z,1006.76
2018-07-21T06:53:01.313Z,1006.73
2018-07-21T06:54:01.497Z,1006.78
2018-07-21T06:55:01.311Z,1006.81
2018-07-21T06:56:01.305Z,1006.80
2018-07-21T06:57:01.337Z,1006.80
2018-07-21T06:58:01.340Z,1006.85
2018-07-21T06:59:01.359Z,1006.85
2018-07-21T07:00:01.351Z,1006.85
2018-07-21T07:01:01.336Z,1006.85
2018-07-21T07:02:01.333Z,1006.86
2018-07-21T07:03:01.360Z,1006.87
2018-07-21T07:04:01.375Z,1006.89
2018-07-21T07:05:01.372Z,1006.85
2018-07-21T07:06:01.361Z,1006.84
2018-07-21T07:07:01.371Z,1006.86
2018-07-21T07:08:01.367Z,1006.84
2018-07-21T07:09:01.365Z,1006.88
2018-07-21T07:10:01.387Z,1006.89
2018-07-21T07:11:01.387Z,1006.86
2018-07-21T07:12:01.384Z,1006.86
2018-07-21T07:13:01.402Z,1006.86
2018-07-21T07:14:01.388Z,1006.84
2018-07-21T07:15:01.393Z,1006.81
2018-07-21T07:16:01.409Z,1006.82
2018-07-21T07:17:01.416Z,1006.81
2018-07-21T07:18:01.421Z,1006.79
2018-07-21T07:19:01.415Z,1006.78
2018-07-21T07:20:01.434Z,1006.77
2018-07-21T07:21:01.424Z,1006.79
2018-07-21T07:22:01.443Z,1006.83
2018-07-21T07:23:01.444Z,1006.79
2018-07-21T07:24:01.440Z,1006.77
2018-07-21T07:25:01.444Z,1006.81
2018-07-21T07:26:01.453Z,1006.83
2018-07-21T07:27:01.451Z,1006.82
2018-07-21T07:28:01.470Z,1006.83
2018-07-21T07:29:01.490Z,1006.86
2018-07-21T07:30:01.471Z,1006.85
2018-07-21T07:31:01.472Z,1006.89
2018-07-21T07:32:01.478Z,1006.87
2018-07-21T07:33:01.487Z,1006.88
2018-07-21T07:34:01.485Z,1006.85
2018-07-21T07:35:01.492Z,1006.87
2018-07-21T07:36:01.495Z,1006.87
2018-07-21T07:37:01.711Z,1006.87
2018-07-21T07:38:01.525Z,1006.89
2018-07-21T07:39:01.554Z,1006.88
2018-07-21T07:40:01.576Z,1006.92
2018-07-21T07:41:01.537Z,1006.89
2018-07-21T07:42:01.579Z,1006.91
2018-07-21T07:43:01.557Z,1006.89
2018-07-21T07:44:01.591Z,1006.91
2018-07-21T07:45:01.565Z,1006.89
2018-07-21T07:46:01.557Z,1006.93
2018-07-21T07:47:01.553Z,1006.90
2018-07-21T07:48:01.759Z,1006.88
2018-07-21T07:49:01.566Z,1006.93
2018-07-21T07:50:01.771Z,1006.94
2018-07-21T07:51:01.572Z,1006.92
2018-07-21T07:52:01.795Z,1006.91
2018-07-21T07:53:01.801Z,1006.94
2018-07-21T07:54:01.602Z,1006.95
2018-07-21T07:55:01.797Z,1006.95
2018-07-21T07:56:01.597Z,1006.96
2018-07-21T07:57:01.605Z,1006.94
2018-07-21T07:58:01.613Z,1006.90
2018-07-21T07:59:01.627Z,1006.90
2018-07-21T08:00:01.619Z,1006.91
2018-07-21T08:01:01.625Z,1006.87
2018-07-21T08:02:01.630Z,1006.81
2018-07-21T08:03:01.636Z,1006.82
2018-07-21T08:04:01.654Z,1006.78
2018-07-21T08:05:01.658Z,1006.79
2018-07-21T08:06:01.666Z,1006.76
2018-07-21T08:07:01.655Z,1006.70
2018-07-21T08:08:01.672Z,1006.77
2018-07-21T08:09:01.878Z,1006.74
2018-07-21T08:10:01.685Z,1006.68
2018-07-21T08:11:01.683Z,1006.72
2018-07-21T08:12:01.898Z,1006.70
2018-07-21T08:13:01.691Z,1006.70
2018-07-21T08:14:01.942Z,1006.70
2018-07-21T08:15:01.703Z,1006.70
2018-07-21T08:16:01.714Z,1006.71
2018-07-21T08:17:01.715Z,1006.71
2018-07-21T08:18:01.744Z,1006.72
2018-07-21T08:19:01.737Z,1006.69
2018-07-21T08:20:01.732Z,1006.72
2018-07-21T08:21:01.761Z,1006.71
2018-07-21T08:22:01.765Z,1006.72
2018-07-21T08:23:01.951Z,1006.72
2018-07-21T08:24:01.765Z,1006.69
2018-07-21T08:25:01.771Z,1006.67
2018-07-21T08:26:01.776Z,1006.68
2018-07-21T08:27:01.985Z,1006.66
2018-07-21T08:28:01.785Z,1006.69
2018-07-21T08:29:02.046Z,1006.66
2018-07-21T08:30:01.808Z,1006.69
2018-07-21T08:31:01.795Z,1006.63
2018-07-21T08:32:01.810Z,1006.59
2018-07-21T08:33:01.814Z,1006.64
2018-07-21T08:34:01.823Z,1006.60
2018-07-21T08:35:02.032Z,1006.57
2018-07-21T08:36:01.837Z,1006.61
2018-07-21T08:37:01.828Z,1006.56
2018-07-21T08:38:01.842Z,1006.52
2018-07-21T08:39:01.847Z,1006.55
2018-07-21T08:40:02.075Z,1006.48
2018-07-21T08:41:02.065Z,1006.45
2018-07-21T08:42:02.060Z,1006.48
2018-07-21T08:43:01.862Z,1006.48
2018-07-21T08:44:01.877Z,1006.49
2018-07-21T08:45:02.097Z,1006.43
2018-07-21T08:46:01.889Z,1006.43
2018-07-21T08:47:01.880Z,1006.44
2018-07-21T08:48:01.901Z,1006.45
2018-07-21T08:49:01.905Z,1006.42
2018-07-21T08:50:01.910Z,1006.46
2018-07-21T08:51:02.133Z,1006.44
2018-07-21T08:52:01.921Z,1006.43
2018-07-21T08:53:01.925Z,1006.43
2018-07-21T08:54:01.932Z,1006.45
2018-07-21T08:55:01.948Z,1006.40
2018-07-21T08:56:01.952Z,1006.40
2018-07-21T08:57:01.953Z,1006.39
2018-07-21T08:58:01.948Z,1006.42
2018-07-21T08:59:02.169Z,1006.41
2018-07-21T09:00:01.957Z,1006.39
2018-07-21T09:01:01.962Z,1006.37
2018-07-21T09:02:01.979Z,1006.40
2018-07-21T09:03:01.987Z,1006.39
2018-07-21T09:04:01.988Z,1006.45
2018-07-21T09:05:01.982Z,1006.41
2018-07-21T09:06:02.214Z,1006.36
2018-07-21T09:07:02.020Z,1006.41
2018-07-21T09:08:02.030Z,1006.37
2018-07-21T09:09:02.019Z,1006.39
2018-07-21T09:10:02.044Z,1006.39
2018-07-21T09:11:02.016Z,1006.36
2018-07-21T09:12:02.020Z,1006.34
2018-07-21T09:13:02.075Z,1006.31
2018-07-21T09:14:02.232Z,1006.33
2018-07-21T09:15:02.049Z,1006.29
2018-07-21T09:16:02.043Z,1006.30
2018-07-21T09:17:02.051Z,1006.33
2018-07-21T09:18:02.066Z,1006.31
2018-07-21T09:19:02.061Z,1006.29
2018-07-21T09:20:02.067Z,1006.30
2018-07-21T09:21:02.072Z,1006.26
2018-07-21T09:22:02.083Z,1006.28
2018-07-21T09:23:02.299Z,1006.28
2018-07-21T09:24:02.090Z,1006.32
2018-07-21T09:25:02.098Z,1006.28
2018-07-21T09:26:02.299Z,1006.34
2018-07-21T09:27:02.105Z,1006.32
2018-07-21T09:28:02.326Z,1006.31
2018-07-21T09:29:02.319Z,1006.32
2018-07-21T09:30:02.121Z,1006.30
2018-07-21T09:31:02.125Z,1006.34
2018-07-21T09:32:02.132Z,1006.37
2018-07-21T09:33:02.135Z,1006.32
2018-07-21T09:34:02.157Z,1006.34
2018-07-21T09:35:02.161Z,1006.33
2018-07-21T09:36:02.163Z,1006.33
2018-07-21T09:37:02.165Z,1006.37
2018-07-21T09:38:02.165Z,1006.35
2018-07-21T09:39:02.170Z,1006.33
2018-07-21T09:40:02.211Z,1006.33
2018-07-21T09:41:02.330Z,1006.34
2018-07-21T09:42:02.189Z,1006.38
2018-07-21T09:43:02.194Z,1006.41
2018-07-21T09:44:02.401Z,1006.39
2018-07-21T09:45:02.406Z,1006.39
2018-07-21T09:46:02.217Z,1006.39
2018-07-21T09:47:02.214Z,1006.45
2018-07-21T09:48:02.422Z,1006.43
2018-07-21T09:49:02.231Z,1006.45
2018-07-21T09:50:02.231Z,1006.46
2018-07-21T09:51:02.237Z,1006.48
2018-07-21T09:52:02.241Z,1006.44
2018-07-21T09:53:02.468Z,1006.45
2018-07-21T09:54:02.253Z,1006.45
2018-07-21T09:55:02.472Z,1006.50
2018-07-21T09:56:02.319Z,1006.50
2018-07-21T09:57:02.275Z,1006.50
2018-07-21T09:58:02.495Z,1006.50
2018-07-21T09:59:02.282Z,1006.52
2018-07-21T10:00:02.495Z,1006.51
2018-07-21T10:01:02.305Z,1006.51
2018-07-21T10:02:02.303Z,1006.52
2018-07-21T10:03:02.509Z,1006.50
2018-07-21T10:04:02.517Z,1006.49
2018-07-21T10:05:02.523Z,1006.50
2018-07-21T10:06:02.334Z,1006.53
2018-07-21T10:07:02.329Z,1006.50
2018-07-21T10:08:02.346Z,1006.51
2018-07-21T10:09:02.354Z,1006.49
2018-07-21T10:10:02.552Z,1006.47
2018-07-21T10:11:02.375Z,1006.46
2018-07-21T10:12:02.358Z,1006.48
2018-07-21T10:13:02.571Z,1006.47
2018-07-21T10:14:02.581Z,1006.47
2018-07-21T10:15:02.388Z,1006.48
2018-07-21T10:16:02.380Z,1006.44
2018-07-21T10:17:02.406Z,1006.44
2018-07-21T10:18:02.397Z,1006.44
2018-07-21T10:19:02.414Z,1006.43
2018-07-21T10:20:02.415Z,1006.41
2018-07-21T10:21:02.628Z,1006.41
2018-07-21T10:22:02.419Z,1006.41
2018-07-21T10:23:02.420Z,1006.40
2018-07-21T10:24:02.631Z,1006.43
2018-07-21T10:25:02.446Z,1006.45
2018-07-21T10:26:02.439Z,1006.47
2018-07-21T10:27:02.447Z,1006.49
2018-07-21T10:28:02.452Z,1006.48
2018-07-21T10:29:02.473Z,1006.48
2018-07-21T10:30:02.485Z,1006.47
2018-07-21T10:31:02.469Z,1006.52
2018-07-21T10:32:02.476Z,1006.48
2018-07-21T10:33:02.484Z,1006.45
2018-07-21T10:34:02.487Z,1006.46
2018-07-21T10:35:02.698Z,1006.46
2018-07-21T10:36:02.594Z,1006.50
2018-07-21T10:37:02.511Z,1006.48
2018-07-21T10:38:02.563Z,1006.43
2018-07-21T10:39:02.519Z,1006.45
2018-07-21T10:40:02.738Z,1006.49
2018-07-21T10:41:02.531Z,1006.47
2018-07-21T10:42:02.536Z,1006.48
2018-07-21T10:43:02.553Z,1006.52
2018-07-21T10:44:02.549Z,1006.50
2018-07-21T10:45:02.552Z,1006.48
2018-07-21T10:46:02.764Z,1006.47
2018-07-21T10:47:02.563Z,1006.46
2018-07-21T10:48:02.572Z,1006.41
2018-07-21T10:49:02.779Z,1006.43
2018-07-21T10:50:02.598Z,1006.40
2018-07-21T10:51:02.590Z,1006.39
2018-07-21T10:52:02.594Z,1006.41
2018-07-21T10:53:02.604Z,1006.38
2018-07-21T10:54:02.607Z,1006.37
2018-07-21T10:55:02.624Z,1006.38
2018-07-21T10:56:02.621Z,1006.41
2018-07-21T10:57:02.625Z,1006.39
2018-07-21T10:58:02.634Z,1006.37
2018-07-21T10:59:02.642Z,1006.33
2018-07-21T11:00:02.656Z,1006.37
2018-07-21T11:01:02.652Z,1006.38
2018-07-21T11:02:02.860Z,1006.35
2018-07-21T11:03:02.676Z,1006.35
2018-07-21T11:04:02.684Z,1006.34
2018-07-21T11:05:02.678Z,1006.33
2018-07-21T11:06:02.683Z,1006.32
2018-07-21T11:07:02.700Z,1006.34
2018-07-21T11:08:02.957Z,1006.34
2018-07-21T11:09:02.704Z,1006.37
2018-07-21T11:10:02.708Z,1006.35
2018-07-21T11:11:02.714Z,1006.40
2018-07-21T11:12:02.719Z,1006.38
2018-07-21T11:13:02.930Z,1006.37
2018-07-21T11:14:02.746Z,1006.40
2018-07-21T11:15:02.740Z,1006.39
2018-07-21T11:16:02.771Z,1006.35
2018-07-21T11:17:02.956Z,1006.38
2018-07-21T11:18:02.757Z,1006.37
2018-07-21T11:19:02.967Z,1006.42
2018-07-21T11:20:02.784Z,1006.35
2018-07-21T11:21:02.791Z,1006.34
2018-07-21T11:22:02.834Z,1006.36
2018-07-21T11:23:02.993Z,1006.35
2018-07-21T11:24:02.807Z,1006.38
2018-07-21T11:25:02.819Z,1006.40
2018-07-21T11:26:02.807Z,1006.42
2018-07-21T11:27:03.028Z,1006.38
2018-07-21T11:28:02.824Z,1006.39
2018-07-21T11:29:02.830Z,1006.41
2018-07-21T11:30:02.844Z,1006.37
2018-07-21T11:31:02.854Z,1006.37
2018-07-21T11:32:02.858Z,1006.39
2018-07-21T11:33:02.867Z,1006.36
2018-07-21T11:34:03.074Z,1006.40
2018-07-21T11:35:02.869Z,1006.38
2018-07-21T11:36:03.341Z,1006.39
2018-07-21T11:37:03.084Z,1006.42
2018-07-21T11:38:02.901Z,1006.44
2018-07-21T11:39:03.121Z,1006.43
2018-07-21T11:40:02.898Z,1006.43
2018-07-21T11:41:02.906Z,1006.42
2018-07-21T11:42:02.933Z,1006.42
2018-07-21T11:43:02.930Z,1006.42
2018-07-21T11:44:02.938Z,1006.39
2018-07-21T11:45:03.152Z,1006.39
2018-07-21T11:46:02.953Z,1006.36
2018-07-21T11:47:02.957Z,1006.39
2018-07-21T11:48:02.965Z,1006.37
2018-07-21T11:49:02.959Z,1006.37
2018-07-21T11:50:02.964Z,1006.42
2018-07-21T11:51:02.988Z,1006.36
2018-07-21T11:52:03.002Z,1006.37
2018-07-21T11:53:03.017Z,1006.37
2018-07-21T11:54:03.195Z,1006.38
2018-07-21T11:55:02.999Z,1006.36
2018-07-21T11:56:03.018Z,1006.37
2018-07-21T11:57:03.015Z,1006.36
2018-07-21T11:58:03.019Z,1006.42
2018-07-21T11:59:03.087Z,1006.44
2018-07-21T12:00:03.040Z,1006.45
2018-07-21T12:01:03.038Z,1006.44
2018-07-21T12:02:03.043Z,1006.43
2018-07-21T12:03:03.052Z,1006.43
2018-07-21T12:04:03.058Z,1006.42
2018-07-21T12:05:03.066Z,1006.43
2018-07-21T12:06:03.072Z,1006.43
2018-07-21T12:07:03.079Z,1006.43